createdAt,value
2023-05-24T00:02:23.941Z,10.10
2023-05-24T00:04:52.971Z,10.10
2023-05-24T00:07:20.255Z,10.20
2023-05-24T00:09:47.296Z,10.20
2023-05-24T00:12:14.241Z,10.20
2023-05-24T00:14:41.204Z,10.20
2023-05-24T00:17:08.152Z,10.20
2023-05-24T00:19:38.371Z,10.20
2023-05-24T00:22:05.581Z,10.20
2023-05-24T00:24:32.595Z,10.20
2023-05-24T00:26:59.600Z,10.20
2023-05-24T00:29:26.564Z,10.20
2023-05-24T00:31:53.599Z,10.20
2023-05-24T00:34:20.779Z,10.10
2023-05-24T00:36:47.712Z,9.90
2023-05-24T00:39:14.818Z,9.90
2023-05-24T00:41:41.845Z,10.00
2023-05-24T00:44:11.010Z,10.00
2023-05-24T00:46:38.609Z,10.00
2023-05-24T00:49:05.672Z,10.00
2023-05-24T00:51:34.062Z,10.00
2023-05-24T00:54:01.332Z,10.10
2023-05-24T00:56:28.673Z,10.00
2023-05-24T00:58:56.407Z,10.00
2023-05-24T01:01:30.989Z,10.00
2023-05-24T01:03:59.876Z,10.00
2023-05-24T01:06:28.556Z,10.00
2023-05-24T01:09:09.517Z,10.00
2023-05-24T01:12:00.005Z,10.00
2023-05-24T01:15:05.697Z,9.90
2023-05-24T01:17:32.697Z,9.90
2023-05-24T01:20:11.397Z,9.90
2023-05-24T01:22:50.659Z,9.80
2023-05-24T01:25:20.189Z,9.70
2023-05-24T01:27:48.144Z,9.60
2023-05-24T01:30:15.821Z,9.70
2023-05-24T01:32:43.343Z,9.70
2023-05-24T01:35:10.640Z,9.60
2023-05-24T01:37:37.558Z,9.70
2023-05-24T01:40:06.331Z,9.60
2023-05-24T01:42:52.321Z,9.50
2023-05-24T01:45:28.575Z,9.50
2023-05-24T01:48:03.442Z,9.60
2023-05-24T01:50:45.569Z,9.70
2023-05-24T01:53:15.067Z,9.80
2023-05-24T01:55:43.793Z,9.90
2023-05-24T01:58:13.671Z,9.80
2023-05-24T02:00:41.731Z,9.80
2023-05-24T02:03:09.962Z,9.80
2023-05-24T02:05:38.726Z,9.80
2023-05-24T02:08:05.824Z,9.80
2023-05-24T02:10:33.057Z,9.80
2023-05-24T02:13:00.066Z,9.80
2023-05-24T02:15:30.519Z,9.80
2023-05-24T02:17:58.340Z,9.70
2023-05-24T02:20:25.460Z,9.80
2023-05-24T02:22:52.556Z,9.80
2023-05-24T02:25:19.568Z,9.80
2023-05-24T02:27:47.936Z,9.90
2023-05-24T02:30:14.914Z,9.90
2023-05-24T02:32:42.100Z,9.90
2023-05-24T02:35:09.155Z,9.90
2023-05-24T02:37:36.304Z,9.90
2023-05-24T02:40:03.993Z,9.90
2023-05-24T02:42:31.125Z,9.80
2023-05-24T02:44:58.137Z,9.70
2023-05-24T02:47:27.063Z,9.80
2023-05-24T02:49:55.048Z,9.80
2023-05-24T02:52:23.292Z,10.00
2023-05-24T02:54:50.559Z,10.10
2023-05-24T02:57:18.191Z,10.00
2023-05-24T02:59:45.173Z,10.00
2023-05-24T03:02:13.817Z,10.00
2023-05-24T03:04:40.891Z,10.00
2023-05-24T03:07:08.073Z,10.00
2023-05-24T03:09:35.020Z,10.00
2023-05-24T03:12:01.918Z,10.00
2023-05-24T03:14:28.935Z,10.10
2023-05-24T03:16:55.856Z,10.10
2023-05-24T03:19:22.799Z,10.20
2023-05-24T03:21:49.829Z,10.30
2023-05-24T03:24:16.815Z,10.30
2023-05-24T03:26:43.792Z,10.30
2023-05-24T03:29:10.970Z,10.30
2023-05-24T03:31:38.022Z,10.50
2023-05-24T03:34:05.038Z,10.40
2023-05-24T03:36:32.913Z,10.50
2023-05-24T03:39:00.023Z,10.60
2023-05-24T03:41:28.279Z,10.60
2023-05-24T03:43:55.407Z,10.60
2023-05-24T03:46:22.522Z,10.60
2023-05-24T03:48:49.855Z,10.70
2023-05-24T03:51:16.923Z,10.70
2023-05-24T03:53:43.937Z,10.80
2023-05-24T03:56:11.118Z,10.80
2023-05-24T03:58:38.729Z,10.90
2023-05-24T04:01:05.792Z,11.00
2023-05-24T04:03:34.263Z,11.10
2023-05-24T04:06:01.582Z,11.20
2023-05-24T04:08:28.524Z,11.30
2023-05-24T04:10:55.746Z,11.40
2023-05-24T04:13:22.839Z,11.40
2023-05-24T04:15:49.846Z,11.50
2023-05-24T04:18:16.926Z,11.60
2023-05-24T04:20:44.231Z,11.70
2023-05-24T04:23:11.348Z,11.70
2023-05-24T04:25:38.518Z,11.80
2023-05-24T04:28:06.259Z,11.80
2023-05-24T04:30:33.321Z,12.00
2023-05-24T04:33:00.386Z,12.10
2023-05-24T04:35:27.543Z,12.10
2023-05-24T04:37:54.546Z,12.20
2023-05-24T04:40:21.485Z,12.20
2023-05-24T04:42:48.845Z,12.30
2023-05-24T04:45:16.058Z,12.40
2023-05-24T04:47:43.321Z,12.50
2023-05-24T04:50:11.073Z,12.50
2023-05-24T04:52:38.210Z,12.60
2023-05-24T04:55:05.593Z,12.70
2023-05-24T04:57:32.620Z,12.80
2023-05-24T04:59:59.594Z,12.90
2023-05-24T05:02:27.247Z,13.00
2023-05-24T05:04:54.422Z,13.00
2023-05-24T05:07:21.656Z,13.10
2023-05-24T05:09:48.689Z,13.20
2023-05-24T05:12:16.134Z,13.20
2023-05-24T05:14:43.324Z,13.30
2023-05-24T05:17:10.403Z,13.40
2023-05-24T05:19:37.404Z,13.50
2023-05-24T05:22:04.585Z,13.50
2023-05-24T05:24:31.620Z,13.60
2023-05-24T05:26:58.723Z,13.70
2023-05-24T05:29:25.736Z,13.70
2023-05-24T05:31:52.787Z,13.80
2023-05-24T05:34:21.217Z,13.90
2023-05-24T05:36:48.325Z,14.00
2023-05-24T05:39:15.319Z,14.10
2023-05-24T05:41:46.006Z,14.20
2023-05-24T05:44:14.026Z,14.40
2023-05-24T05:46:43.978Z,14.50
2023-05-24T05:49:11.259Z,14.60
2023-05-24T05:51:38.915Z,14.70
2023-05-24T05:54:06.505Z,14.80
2023-05-24T05:56:33.535Z,14.90
2023-05-24T05:59:00.521Z,15.10
2023-05-24T06:01:27.510Z,15.20
2023-05-24T06:03:54.624Z,15.30
2023-05-24T06:06:21.603Z,15.40
2023-05-24T06:08:48.541Z,15.60
2023-05-24T06:11:15.518Z,15.70
2023-05-24T06:13:42.525Z,15.90
2023-05-24T06:16:10.043Z,16.00
2023-05-24T06:18:37.123Z,16.20
2023-05-24T06:21:04.338Z,16.30
2023-05-24T06:23:32.261Z,16.40
2023-05-24T06:25:59.221Z,16.50
2023-05-24T06:28:26.187Z,16.70
2023-05-24T06:30:53.245Z,16.80
2023-05-24T06:33:20.880Z,16.90
2023-05-24T06:35:48.335Z,17.10
2023-05-24T06:38:15.303Z,17.20
2023-05-24T06:40:42.505Z,17.30
2023-05-24T06:43:09.597Z,17.60
2023-05-24T06:45:37.413Z,17.70
2023-05-24T06:48:04.633Z,17.90
2023-05-24T06:50:32.058Z,18.10
2023-05-24T06:52:59.002Z,18.10
2023-05-24T06:55:26.021Z,18.30
2023-05-24T06:57:52.960Z,18.40
2023-05-24T07:00:20.480Z,18.50
2023-05-24T07:02:47.503Z,18.60
2023-05-24T07:05:14.765Z,18.60
2023-05-24T07:07:43.699Z,18.60
2023-05-24T07:10:11.721Z,18.40
2023-05-24T07:12:38.958Z,18.40
2023-05-24T07:15:07.252Z,18.40
2023-05-24T07:17:34.396Z,18.50
2023-05-24T07:20:02.277Z,18.70
2023-05-24T07:22:30.157Z,18.80
2023-05-24T07:24:57.149Z,19.00
2023-05-24T07:27:24.325Z,19.10
2023-05-24T07:29:51.355Z,19.40
2023-05-24T07:32:19.493Z,19.50
2023-05-24T07:34:46.476Z,19.70
2023-05-24T07:37:13.447Z,19.80
2023-05-24T07:39:40.379Z,19.90
2023-05-24T07:42:07.486Z,19.60
2023-05-24T07:44:34.416Z,19.60
2023-05-24T07:47:02.635Z,19.80
2023-05-24T07:49:29.656Z,19.90
2023-05-24T07:51:59.520Z,20.10
2023-05-24T07:54:26.754Z,20.30
2023-05-24T07:56:53.763Z,20.20
2023-05-24T07:59:21.103Z,20.20
2023-05-24T08:01:48.104Z,20.10
2023-05-24T08:04:15.123Z,20.30
2023-05-24T08:06:42.179Z,20.50
2023-05-24T08:09:09.353Z,20.50
2023-05-24T08:11:36.305Z,20.80
2023-05-24T08:14:04.422Z,21.10
2023-05-24T08:16:32.039Z,21.40
2023-05-24T08:18:59.487Z,21.60
2023-05-24T08:21:27.750Z,21.70
2023-05-24T08:23:54.802Z,21.80
2023-05-24T08:26:22.242Z,21.90
2023-05-24T08:28:49.376Z,21.50
2023-05-24T08:31:16.523Z,21.50
2023-05-24T08:33:44.014Z,21.80
2023-05-24T08:36:11.004Z,21.60
2023-05-24T08:38:37.987Z,21.80
2023-05-24T08:41:08.401Z,21.50
2023-05-24T08:43:35.919Z,21.40
2023-05-24T08:46:04.311Z,22.00
2023-05-24T08:48:31.963Z,22.40
2023-05-24T08:50:59.521Z,21.90
2023-05-24T08:53:27.494Z,21.90
2023-05-24T08:55:56.200Z,22.00
2023-05-24T08:58:26.189Z,22.00
2023-05-24T09:00:53.201Z,21.70
2023-05-24T09:03:20.592Z,21.70
2023-05-24T09:05:47.749Z,22.10
2023-05-24T09:08:18.218Z,22.50
2023-05-24T09:10:55.031Z,22.60
2023-05-24T09:13:27.113Z,23.00
2023-05-24T09:15:54.116Z,23.20
2023-05-24T09:18:21.176Z,23.40
2023-05-24T09:20:48.259Z,23.60
2023-05-24T09:23:16.771Z,23.70
2023-05-24T09:25:45.172Z,24.00
2023-05-24T09:28:17.608Z,24.10
2023-05-24T09:30:59.781Z,24.40
2023-05-24T09:33:32.356Z,24.60
2023-05-24T09:36:01.405Z,24.80
2023-05-24T09:38:29.725Z,25.00
2023-05-24T09:41:08.396Z,25.10
2023-05-24T09:43:48.346Z,25.20
2023-05-24T09:46:22.294Z,25.10
2023-05-24T09:49:04.183Z,25.30
2023-05-24T09:51:31.176Z,25.00
2023-05-24T09:54:00.601Z,25.20
2023-05-24T09:56:27.684Z,25.30
2023-05-24T09:58:55.162Z,25.30
2023-05-24T10:01:25.441Z,25.30
2023-05-24T10:04:00.929Z,25.30
2023-05-24T10:06:28.570Z,25.50
2023-05-24T10:08:57.141Z,25.50
2023-05-24T10:11:24.461Z,25.50
2023-05-24T10:13:51.434Z,25.60
2023-05-24T10:16:18.535Z,25.70
2023-05-24T10:18:45.611Z,25.60
2023-05-24T10:21:13.807Z,25.60
2023-05-24T10:23:44.587Z,25.70
2023-05-24T10:26:14.355Z,25.70
2023-05-24T10:28:46.801Z,26.00
2023-05-24T10:31:28.119Z,26.20
2023-05-24T10:34:06.616Z,26.20
2023-05-24T10:36:35.603Z,26.00
2023-05-24T10:39:03.581Z,26.00
2023-05-24T10:41:44.217Z,26.00
2023-05-24T10:44:16.343Z,26.10
2023-05-24T10:47:12.378Z,25.90
2023-05-24T10:49:48.338Z,25.90
2023-05-24T10:52:15.493Z,26.00
2023-05-24T10:55:05.701Z,26.30
2023-05-24T10:57:33.245Z,26.40
2023-05-24T11:03:02.356Z,26.40
2023-05-24T11:05:36.541Z,26.60
2023-05-24T11:08:06.925Z,26.40
2023-05-24T11:10:36.170Z,26.40
2023-05-24T11:13:04.134Z,26.60
2023-05-24T11:15:31.212Z,26.30
2023-05-24T11:18:09.756Z,26.40
2023-05-24T11:20:37.314Z,26.40
2023-05-24T11:23:09.415Z,26.20
2023-05-24T11:25:39.794Z,26.30
2023-05-24T11:28:13.834Z,26.30
2023-05-24T11:30:48.065Z,26.50
2023-05-24T11:33:22.712Z,26.60
2023-05-24T11:35:54.881Z,26.60
2023-05-24T11:38:24.804Z,26.70
2023-05-24T11:40:52.230Z,27.00
2023-05-24T11:43:21.901Z,27.00
2023-05-24T11:45:50.886Z,27.20
2023-05-24T11:48:19.820Z,27.30
2023-05-24T11:50:50.339Z,27.50
2023-05-24T11:53:19.586Z,27.50
2023-05-24T11:55:46.746Z,27.70
2023-05-24T11:58:36.332Z,27.20
2023-05-24T12:01:04.084Z,27.20
2023-05-24T12:03:32.599Z,27.60
2023-05-24T12:05:59.800Z,27.60
2023-05-24T12:08:26.824Z,27.60
2023-05-24T12:10:54.674Z,27.70
2023-05-24T12:13:23.877Z,27.60
2023-05-24T12:15:56.587Z,27.70
2023-05-24T12:18:26.341Z,27.60
2023-05-24T12:20:53.609Z,27.80
2023-05-24T12:23:23.454Z,27.90
2023-05-24T12:25:51.019Z,27.80
2023-05-24T12:28:24.760Z,27.80
2023-05-24T12:30:51.921Z,27.90
2023-05-24T12:33:21.086Z,27.60
2023-05-24T12:35:50.006Z,27.70
2023-05-24T12:38:25.138Z,27.60
2023-05-24T12:41:10.754Z,27.10
2023-05-24T12:43:39.679Z,27.30
2023-05-24T12:46:06.992Z,27.40
2023-05-24T12:48:34.153Z,27.30
2023-05-24T12:51:02.182Z,27.00
2023-05-24T12:53:29.408Z,27.10
2023-05-24T12:55:56.611Z,26.70
2023-05-24T12:58:23.719Z,27.00
2023-05-24T13:00:52.088Z,27.20
2023-05-24T13:03:19.089Z,27.10
2023-05-24T13:05:47.321Z,27.00
2023-05-24T13:08:14.774Z,26.60
2023-05-24T13:10:42.119Z,26.50
2023-05-24T13:13:09.432Z,26.50
2023-05-24T13:15:38.084Z,26.40
2023-05-24T13:18:05.574Z,26.10
2023-05-24T13:20:32.679Z,26.30
2023-05-24T13:22:59.698Z,26.20
2023-05-24T13:25:27.514Z,26.10
2023-05-24T13:27:54.584Z,26.10
2023-05-24T13:30:27.642Z,26.20
2023-05-24T13:32:56.045Z,26.20
2023-05-24T13:35:23.198Z,25.80
2023-05-24T13:37:51.229Z,26.00
2023-05-24T13:40:18.437Z,25.90
2023-05-24T13:42:45.445Z,25.60
2023-05-24T13:45:12.694Z,25.70
2023-05-24T13:47:41.087Z,25.40
2023-05-24T13:50:08.891Z,25.50
2023-05-24T13:52:36.900Z,25.60
2023-05-24T13:55:07.554Z,25.70
2023-05-24T13:57:50.615Z,25.60
2023-05-24T14:00:19.456Z,25.70
2023-05-24T14:02:47.021Z,25.70
2023-05-24T14:05:26.701Z,25.70
2023-05-24T14:07:56.600Z,25.70
2023-05-24T14:10:23.876Z,25.80
2023-05-24T14:13:07.962Z,25.70
2023-05-24T14:15:38.614Z,25.60
2023-05-24T14:18:08.546Z,25.50
2023-05-24T14:20:38.124Z,25.60
2023-05-24T14:23:06.448Z,25.50
2023-05-24T14:25:33.621Z,25.60
2023-05-24T14:28:01.063Z,25.50
2023-05-24T14:30:28.088Z,25.60
2023-05-24T14:32:55.396Z,25.70
2023-05-24T14:35:22.524Z,25.70
2023-05-24T14:37:49.571Z,25.70
2023-05-24T14:40:19.150Z,25.50
2023-05-24T14:42:47.325Z,25.40
2023-05-24T14:45:14.419Z,25.30
2023-05-24T14:47:41.392Z,25.10
2023-05-24T14:50:08.707Z,25.20
2023-05-24T14:52:35.765Z,25.10
2023-05-24T14:55:04.298Z,25.10
2023-05-24T14:57:31.262Z,24.90
2023-05-24T14:59:58.250Z,24.90
2023-05-24T15:02:25.323Z,24.80
2023-05-24T15:04:52.416Z,24.70
2023-05-24T15:07:20.191Z,24.80
2023-05-24T15:09:47.177Z,24.80
2023-05-24T15:12:14.377Z,24.70
2023-05-24T15:14:41.363Z,24.80
2023-05-24T15:17:09.674Z,24.60
2023-05-24T15:19:36.780Z,24.60
2023-05-24T15:22:04.582Z,24.40
2023-05-24T15:24:31.833Z,24.30
2023-05-24T15:26:58.915Z,24.30
2023-05-24T15:29:26.091Z,24.40
2023-05-24T15:31:53.385Z,24.30
2023-05-24T15:34:23.432Z,24.10
2023-05-24T15:36:50.868Z,23.90
2023-05-24T15:39:20.360Z,24.00
2023-05-24T15:41:47.444Z,23.90
2023-05-24T15:44:14.517Z,24.00
2023-05-24T15:46:41.581Z,23.90
2023-05-24T15:49:08.591Z,23.90
2023-05-24T15:54:06.839Z,23.70
2023-05-24T15:56:33.856Z,23.60
2023-05-24T15:59:00.926Z,23.40
2023-05-24T16:01:27.997Z,23.40
2023-05-24T16:03:55.067Z,23.20
2023-05-24T16:06:22.085Z,23.10
2023-05-24T16:08:49.532Z,23.00
2023-05-24T16:11:16.568Z,23.00
2023-05-24T16:13:43.536Z,22.80
2023-05-24T16:16:10.844Z,22.70
2023-05-24T16:18:38.360Z,22.70
2023-05-24T16:21:05.436Z,22.60
2023-05-24T16:23:32.768Z,22.60
2023-05-24T16:25:59.772Z,22.50
2023-05-24T16:28:26.963Z,22.50
2023-05-24T16:30:56.153Z,22.50
2023-05-24T16:33:24.818Z,22.40
2023-05-24T16:35:55.803Z,22.30
2023-05-24T16:38:24.032Z,22.10
2023-05-24T16:40:51.851Z,22.20
2023-05-24T16:43:19.755Z,22.10
2023-05-24T16:45:47.485Z,22.10
2023-05-24T16:48:14.710Z,22.00
2023-05-24T16:50:42.419Z,22.00
2023-05-24T16:53:09.651Z,22.00
2023-05-24T16:55:36.789Z,22.00
2023-05-24T16:58:03.895Z,21.90
2023-05-24T17:00:31.315Z,21.80
2023-05-24T17:03:00.260Z,21.80
2023-05-24T17:05:27.801Z,21.80
2023-05-24T17:07:55.294Z,21.70
2023-05-24T17:10:22.234Z,21.70
2023-05-24T17:12:49.359Z,21.60
2023-05-24T17:15:16.396Z,21.60
2023-05-24T17:17:43.430Z,21.50
2023-05-24T17:20:10.807Z,21.50
2023-05-24T17:22:37.955Z,21.40
2023-05-24T17:25:05.513Z,21.40
2023-05-24T17:27:32.484Z,21.30
2023-05-24T17:29:59.484Z,21.30
2023-05-24T17:32:26.683Z,21.20
2023-05-24T17:34:53.635Z,21.20
2023-05-24T17:37:20.623Z,21.10
2023-05-24T17:39:52.196Z,21.10
2023-05-24T17:42:19.644Z,21.10
2023-05-24T17:44:47.501Z,21.00
2023-05-24T17:47:14.471Z,21.00
2023-05-24T17:49:41.422Z,21.00
2023-05-24T17:52:08.353Z,20.90
2023-05-24T17:54:35.308Z,20.90
2023-05-24T17:57:03.045Z,20.90
2023-05-24T17:59:30.012Z,20.80
2023-05-24T18:01:56.965Z,20.70
2023-05-24T18:04:23.920Z,20.70
2023-05-24T18:06:50.853Z,20.70
2023-05-24T18:09:18.118Z,20.60
2023-05-24T18:11:45.107Z,20.50
2023-05-24T18:14:12.106Z,20.50
2023-05-24T18:16:39.240Z,20.40
2023-05-24T18:19:06.292Z,20.40
2023-05-24T18:21:33.307Z,20.40
2023-05-24T18:24:00.484Z,20.40
2023-05-24T18:26:27.577Z,20.40
2023-05-24T18:28:54.624Z,20.30
2023-05-24T18:31:22.087Z,20.20
2023-05-24T18:33:49.222Z,20.10
2023-05-24T18:36:16.580Z,20.10
2023-05-24T18:38:47.162Z,20.10
2023-05-24T18:41:15.017Z,20.10
2023-05-24T18:43:43.038Z,20.10
2023-05-24T18:46:14.813Z,20.00
2023-05-24T18:48:42.149Z,20.00
2023-05-24T18:51:09.452Z,19.90
2023-05-24T18:53:36.556Z,19.90
2023-05-24T18:56:03.686Z,19.80
2023-05-24T18:58:31.060Z,19.80
2023-05-24T19:00:58.153Z,19.70
2023-05-24T19:03:25.419Z,19.70
2023-05-24T19:05:52.453Z,19.60
2023-05-24T19:08:19.517Z,19.60
2023-05-24T19:10:46.647Z,19.50
2023-05-24T19:13:13.646Z,19.50
2023-05-24T19:15:40.612Z,19.50
2023-05-24T19:18:07.651Z,19.40
2023-05-24T19:20:34.871Z,19.40
2023-05-24T19:23:01.922Z,19.30
2023-05-24T19:25:28.927Z,19.30
2023-05-24T19:27:59.826Z,19.20
2023-05-24T19:30:27.402Z,19.20
2023-05-24T19:32:54.501Z,19.10
2023-05-24T19:35:21.562Z,19.10
2023-05-24T19:37:48.496Z,19.00
2023-05-24T19:40:15.703Z,19.00
2023-05-24T19:42:42.650Z,18.90
2023-05-24T19:45:10.082Z,18.90
2023-05-24T19:47:37.266Z,18.80
2023-05-24T19:50:04.507Z,18.70
2023-05-24T19:52:31.516Z,18.70
2023-05-24T19:54:58.501Z,18.70
2023-05-24T19:57:25.432Z,18.60
2023-05-24T19:59:52.439Z,18.60
2023-05-24T20:02:19.367Z,18.60
2023-05-24T20:04:46.321Z,18.50
2023-05-24T20:07:14.670Z,18.50
2023-05-24T20:09:41.935Z,18.50
2023-05-24T20:12:09.273Z,18.40
2023-05-24T20:14:36.302Z,18.40
2023-05-24T20:17:04.192Z,18.40
2023-05-24T20:19:31.219Z,18.40
2023-05-24T20:21:58.516Z,18.30
2023-05-24T20:24:25.486Z,18.30
2023-05-24T20:26:52.460Z,18.30
2023-05-24T20:29:19.671Z,18.20
2023-05-24T20:31:47.168Z,18.20
2023-05-24T20:34:14.173Z,18.20
2023-05-24T20:36:43.457Z,18.20
2023-05-24T20:39:10.934Z,18.10
2023-05-24T20:41:38.593Z,18.10
2023-05-24T20:44:05.662Z,18.00
2023-05-24T20:46:32.991Z,18.00
2023-05-24T20:49:00.019Z,18.00
2023-05-24T20:51:27.088Z,18.00
2023-05-24T20:53:54.274Z,17.90
2023-05-24T20:56:23.139Z,17.90
2023-05-24T20:58:52.924Z,17.80
2023-05-24T21:01:21.020Z,17.80
2023-05-24T21:03:48.174Z,17.80
2023-05-24T21:06:15.285Z,17.80
2023-05-24T21:08:43.395Z,17.80
2023-05-24T21:11:10.612Z,17.70
2023-05-24T21:13:38.126Z,17.70
2023-05-24T21:16:05.228Z,17.60
2023-05-24T21:18:33.422Z,17.60
2023-05-24T21:21:00.568Z,17.50
2023-05-24T21:23:27.756Z,17.50
2023-05-24T21:25:54.861Z,17.50
2023-05-24T21:28:21.878Z,17.40
2023-05-24T21:30:48.903Z,17.40
2023-05-24T21:33:16.533Z,17.40
2023-05-24T21:35:43.782Z,17.40
2023-05-24T21:38:11.008Z,17.40
2023-05-24T21:40:38.062Z,17.40
2023-05-24T21:43:05.389Z,17.40
2023-05-24T21:45:32.426Z,17.30
2023-05-24T21:47:59.442Z,17.30
2023-05-24T21:50:26.467Z,17.30
2023-05-24T21:52:53.427Z,17.40
2023-05-24T21:55:20.805Z,17.30
2023-05-24T21:57:47.839Z,17.30
2023-05-24T22:00:15.346Z,17.40
2023-05-24T22:02:42.829Z,17.30
2023-05-24T22:05:10.076Z,17.30
2023-05-24T22:07:37.699Z,17.30
2023-05-24T22:10:05.770Z,17.30
2023-05-24T22:12:33.256Z,17.30
2023-05-24T22:15:01.566Z,17.30
2023-05-24T22:17:32.954Z,17.30
2023-05-24T22:20:04.502Z,17.40
2023-05-24T22:22:31.996Z,17.40
2023-05-24T22:25:02.229Z,17.40
2023-05-24T22:27:30.516Z,17.50
2023-05-24T22:29:57.514Z,17.40
2023-05-24T22:32:24.528Z,17.40
2023-05-24T22:34:51.468Z,17.40
2023-05-24T22:37:18.410Z,17.40
2023-05-24T22:39:45.436Z,17.40
2023-05-24T22:42:12.477Z,17.30
2023-05-24T22:44:39.392Z,17.30
2023-05-24T22:47:08.067Z,17.30
2023-05-24T22:49:35.830Z,17.30
2023-05-24T22:52:02.841Z,17.30
2023-05-24T22:54:29.775Z,17.30
2023-05-24T22:56:56.790Z,17.30
2023-05-24T22:59:23.821Z,17.20
2023-05-24T23:01:51.101Z,17.20
2023-05-24T23:04:21.610Z,17.10
2023-05-24T23:06:52.653Z,17.10
2023-05-24T23:09:29.298Z,17.10
2023-05-24T23:11:58.459Z,17.10
2023-05-24T23:14:25.841Z,17.10
2023-05-24T23:16:52.816Z,17.10
2023-05-24T23:19:19.770Z,17.10
2023-05-24T23:21:46.749Z,17.10
2023-05-24T23:24:16.838Z,17.10
2023-05-24T23:26:44.747Z,17.10
2023-05-24T23:29:11.833Z,17.20
2023-05-24T23:31:39.764Z,17.20
2023-05-24T23:34:07.457Z,17.20
2023-05-24T23:36:34.556Z,17.20
2023-05-24T23:39:01.510Z,17.20
2023-05-24T23:41:28.456Z,17.20
2023-05-24T23:43:55.394Z,17.10
2023-05-24T23:46:22.351Z,17.10
2023-05-24T23:48:49.317Z,17.10
2023-05-24T23:51:16.249Z,17.10
2023-05-24T23:53:43.214Z,17.20
2023-05-24T23:56:11.273Z,17.10
2023-05-24T23:58:38.276Z,17.10
